Flight Track Log - Related Links

Times and Time Zones

All times are in EDT time to prevent confusion due to time zone crossing. See the FDX1166 flight status page for this flight to view local times or setup timezone preferences in your user account.

Time Position Orientation Groundspeed Altitude Reporting Facility
EDT Latitude Longitude Course Direction KTS MPH feet Rate Location/Type
Wed 04:19:50 AM 32.9590 -97.3140 176° South 177 204 2,500  Level FlightAware
Wed 04:20:34 AM 32.9210 -97.3310 201° Southwest 233 268 4,100 2,250 Climbing FlightAware
Wed 04:20:46 AM 32.9160 -97.3460 248° West 255 293 4,600 3,000 Climbing FlightAware
Wed 04:20:58 AM 32.9150 -97.3620 266° West 259 298 5,300 3,600 Climbing FlightAware
Wed 04:21:26 AM 32.9130 -97.4040 267° West 271 312 7,000 3,621 Climbing FlightAware
Wed 04:21:56 AM 32.9100 -97.4520 266° West 284 327 8,800 3,288 Climbing FlightAware
Wed 04:22:39 AM 32.9040 -97.5220 264° West 312 359 11,000 2,415 Climbing FlightAware
Wed 04:23:18 AM 32.9020 -97.5930 268° West 361 415 12,100 1,600 Climbing FlightAware
Wed 04:23:54 AM 32.9110 -97.6690 278° West 402 463 13,000 2,561 Climbing FlightAware
Wed 04:24:40 AM 32.9260 -97.7690 280° West 405 466 15,600 3,073 Climbing FlightAware
Wed 04:25:16 AM 32.9360 -97.8520 278° West 419 482 17,200 2,833 Climbing FlightAware
Wed 04:25:52 AM 32.9460 -97.9360 278° West 425 489 19,000 2,615 Climbing FlightAware
Wed 04:26:34 AM 32.9580 -98.0320 278° West 435 501 20,600 2,286 Climbing FlightAware
Wed 04:27:16 AM 32.9730 -98.1300 280° West 446 513 22,200 1,364 Climbing FlightAware
Wed 04:28:02 AM 32.9850 -98.2310 278° West 448 516 22,600 2,220 Climbing FlightAware
Wed 04:28:56 AM 33.0060 -98.3850 279° West 467 537 25,900 2,816 Climbing FlightAware
Wed 04:29:40 AM 33.0220 -98.4980 280° West 476 548 27,200 1,172 Climbing FlightAware
Wed 04:30:23 AM 33.0340 -98.5960 278° West 483 556 27,600 1,846 Climbing FlightAware
Wed 04:31:11 AM 33.0520 -98.7370 279° West 487 560 30,000 2,703 Climbing FlightAware
Wed 04:31:54 AM 33.0670 -98.8500 279° West 483 556 31,700 2,182 Climbing FlightAware
Wed 04:32:39 AM 33.0830 -98.9680 279° West 482 555 33,200 2,024 Climbing FlightAware
Wed 04:33:17 AM 33.0960 -99.0680 279° West 480 552 34,500 2,067 Climbing FlightAware
Wed 04:34:09 AM 33.1140 -99.2060 279° West 475 547 36,300 1,957 Climbing FlightAware
Wed 04:34:49 AM 33.1260 -99.3060 278° West 472 543 37,500 1,683 Climbing FlightAware
Wed 04:35:31 AM 33.1400 -99.4120 279° West 470 541 38,600 1,500 Climbing FlightAware
Wed 04:36:13 AM 33.1530 -99.5240 278° West 464 534 39,600 988 Climbing FlightAware
Wed 04:36:56 AM 33.1670 -99.6290 279° West 460 529 40,000 300 Climbing FlightAware
Wed 04:37:33 AM 33.1780 -99.7220 278° West 458 527 40,000  Level FlightAware
Wed 04:38:22 AM 33.1930 -99.8450 278° West 459 528 40,000  Level FlightAware
Wed 04:39:09 AM 33.2070 -99.9630 278° West 462 532 40,000  Level FlightAware
Wed 04:40:08 AM 33.2240 -100.1030 278° West 462 532 40,000  Level FlightAware
Wed 04:40:32 AM 33.2300 -100.1550 278° West 462 532 40,000  Level FlightAware
Wed 04:41:21 AM 33.2420 -100.2600 278° West 462 532 40,000  Level FlightAware
Wed 04:41:59 AM 33.2590 -100.3950 279° West 469 540 40,000  Level FlightAware
Wed 04:42:40 AM 33.2690 -100.4900 277° West 469 540 40,000  Level FlightAware
Wed 04:43:28 AM 33.2800 -100.5950 277° West 469 540 40,000  Level FlightAware
Wed 04:44:04 AM 33.2880 -100.6740 277° West 469 540 40,000  Level FlightAware
Wed 04:44:52 AM 33.2990 -100.7790 277° West 469 540 40,000  Level FlightAware
Wed 04:45:30 AM 33.3070 -100.8630 277° West 469 540 40,000  Level FlightAware
Wed 04:46:08 AM 33.3160 -100.9460 277° West 469 540 40,000  Level FlightAware
Wed 04:46:44 AM 33.3240 -101.0250 277° West 469 540 40,000  Level FlightAware
Wed 04:47:32 AM 33.3340 -101.1300 277° West 469 540 40,000  Level FlightAware
Wed 04:48:20 AM 33.3450 -101.2350 277° West 469 540 40,000  Level FlightAware
Wed 04:49:32 AM 33.3610 -101.3930 277° West 469 540 40,000  Level FlightAware
Wed 04:50:09 AM 33.3700 -101.4740 278° West 469 540 40,000  Level FlightAware
Wed 04:50:58 AM 33.3810 -101.5810 277° West 469 540 40,000  Level FlightAware
Wed 04:51:34 AM 33.3890 -101.6600 277° West 469 540 40,000  Level FlightAware
Wed 04:52:07 AM 33.4289 -101.9297 277° West 466 536 40,000  Level Albuquerque Center
Wed 04:53:07 AM 33.4450 -102.0842 277° West 468 539 40,000  Level Albuquerque Center
Wed 04:54:08 AM 33.4606 -102.2383 277° West 469 540 40,000  Level Albuquerque Center
Wed 04:55:08 AM 33.4769 -102.3922 277° West 469 540 40,000  Level Albuquerque Center
Wed 04:56:08 AM 33.4919 -102.5458 277° West 467 537 40,000  Level Albuquerque Center
Wed 04:57:08 AM 33.5081 -102.6983 277° West 467 537 40,000  Level Albuquerque Center
Wed 04:58:09 AM 33.5222 -102.8553 276° West 471 542 40,000  Level Albuquerque Center
Wed 04:59:09 AM 33.5369 -103.0094 277° West 470 541 40,000  Level Albuquerque Center
Wed 05:00:09 AM 33.5517 -103.1644 277° West 470 541 40,000  Level Albuquerque Center
Wed 05:01:09 AM 33.5656 -103.3197 276° West 472 543 40,000  Level Albuquerque Center
Wed 05:02:09 AM 33.5811 -103.5086 276° West 474 545 40,000  Level Albuquerque Center
Wed 05:03:10 AM 33.5953 -103.6625 276° West 470 541 40,000  Level Albuquerque Center
Wed 05:04:10 AM 33.6119 -103.8203 277° West 469 540 40,000  Level Albuquerque Center
Wed 05:05:10 AM 33.6247 -103.9747 276° West 468 539 40,000  Level Albuquerque Center
Wed 05:06:10 AM 33.6392 -104.1286 276° West 467 537 40,000  Level Albuquerque Center
Wed 05:07:11 AM 33.6522 -104.2825 276° West 466 536 40,000  Level Albuquerque Center
Wed 05:08:11 AM 33.6650 -104.4358 276° West 466 536 40,000  Level Albuquerque Center
Wed 05:09:11 AM 33.6775 -104.5897 276° West 466 536 40,000  Level Albuquerque Center
Wed 05:10:11 AM 33.6897 -104.7436 275° West 466 536 40,000  Level Albuquerque Center
Wed 05:11:12 AM 33.7017 -104.8964 275° West 464 534 40,000  Level Albuquerque Center
Wed 05:12:12 AM 33.7131 -105.0497 275° West 462 532 40,000  Level Albuquerque Center
Wed 05:13:12 AM 33.7242 -105.2025 275° West 462 532 40,000  Level Albuquerque Center
Wed 05:14:12 AM 33.7383 -105.3664 276° West 463 533 40,000  Level Albuquerque Center
Wed 05:15:13 AM 33.7494 -105.5192 275° West 461 531 40,000  Level Albuquerque Center
Wed 05:16:13 AM 33.7614 -105.6681 276° West 465 535 40,000  Level Albuquerque Center
Wed 05:17:13 AM 33.7725 -105.8228 275° West 462 532 40,000  Level Albuquerque Center
Wed 05:18:13 AM 33.7828 -105.9706 275° West 457 526 40,000  Level Albuquerque Center
Wed 05:19:14 AM 33.7933 -106.1228 275° West 458 527 40,000  Level Albuquerque Center
Wed 05:20:14 AM 33.8036 -106.2750 275° West 457 526 40,000  Level Albuquerque Center
Wed 05:21:14 AM 33.8150 -106.4292 275° West 462 532 40,000  Level Albuquerque Center
Wed 05:22:15 AM 33.8233 -106.5772 274° West 457 526 40,000  Level Albuquerque Center
Wed 05:23:15 AM 33.8339 -106.7289 275° West 456 525 40,000  Level Albuquerque Center
Wed 05:24:15 AM 33.8433 -106.8808 274° West 457 526 40,000  Level Albuquerque Center
Wed 05:25:16 AM 33.8533 -107.0353 275° West 463 533 40,000  Level Albuquerque Center
Wed 05:26:16 AM 33.8625 -107.1886 274° West 463 533 40,000  Level Albuquerque Center
Wed 05:27:16 AM 33.8717 -107.3414 274° West 462 532 40,000  Level Albuquerque Center
Wed 05:28:16 AM 33.8797 -107.4942 274° West 461 531 40,000  Level Albuquerque Center
Wed 05:29:17 AM 33.8892 -107.6469 274° West 460 529 40,000  Level Albuquerque Center
Wed 05:30:17 AM 33.8975 -107.7983 274° West 458 527 40,000  Level Albuquerque Center
Wed 05:31:18 AM 33.9064 -107.9511 274° West 459 528 40,000  Level Albuquerque Center
Wed 05:32:18 AM 33.9144 -108.1028 274° West 458 527 40,000  Level Albuquerque Center
Wed 05:33:18 AM 33.9231 -108.2522 274° West 453 521 40,000  Level Albuquerque Center
Wed 05:34:19 AM 33.9317 -108.4033 274° West 452 520 40,000  Level Albuquerque Center
Wed 05:35:19 AM 33.9394 -108.5675 273° West 461 531 40,000  Level Albuquerque Center
Wed 05:36:19 AM 33.9475 -108.7400 273° West 461 531 40,000  Level Albuquerque Center
Wed 05:41:25 AM 33.9840 -109.5320 273° West 469 540 40,000  Level FlightAware
Wed 05:42:05 AM 33.9880 -109.6370 273° West 469 540 40,000  Level FlightAware
Wed 05:42:39 AM 33.9910 -109.7250 272° West 468 539 40,000  Level FlightAware
Wed 05:43:26 AM 33.9950 -109.8290 273° West 467 537 40,000  Level FlightAware
Wed 05:44:02 AM 33.9970 -109.9090 272° West 467 537 40,000  Level FlightAware
Wed 05:44:49 AM 34.0050 -110.0640 274° West 463 533 40,000  Level FlightAware
Wed 05:44:56 AM 34.0050 -110.0800 270° West 463 533 40,000  Level FlightAware
Wed 05:47:05 AM 34.0130 -110.3660 272° West 463 533 40,000  Level FlightAware
Wed 05:47:45 AM 34.0190 -110.4770 274° West 459 528 40,000  Level FlightAware
Wed 05:48:30 AM 34.0240 -110.6270 272° West 460 529 40,000  Level FlightAware
Wed 05:49:15 AM 34.0280 -110.7450 272° West 460 529 40,000  Level FlightAware
Wed 05:49:55 AM 34.0310 -110.8460 272° West 461 531 40,000  Level FlightAware
Wed 05:50:37 AM 34.0350 -110.9560 273° West 461 531 40,000  Level FlightAware
Wed 05:51:17 AM 34.0380 -111.0560 272° West 461 531 40,000  Level FlightAware
Wed 05:51:53 AM 34.0400 -111.1480 272° West 460 529 40,000  Level FlightAware
Wed 05:52:37 AM 34.0440 -111.2630 272° West 460 529 40,000  Level FlightAware
Wed 05:53:13 AM 34.0460 -111.3520 272° West 458 527 40,000  Level FlightAware
Wed 05:53:57 AM 34.0490 -111.4670 272° West 455 524 40,000  Level FlightAware
Wed 05:54:41 AM 34.0520 -111.5780 272° West 452 520 40,000  Level FlightAware
Wed 05:55:25 AM 34.0550 -111.6860 272° West 450 518 40,000  Level FlightAware
Wed 05:56:05 AM 34.0570 -111.7830 271° West 449 517 40,000  Level FlightAware
Wed 05:56:43 AM 34.0590 -111.8810 271° West 449 517 40,000  Level FlightAware
Wed 05:57:23 AM 34.0610 -111.9810 271° West 448 516 40,000  Level FlightAware
Wed 05:57:59 AM 34.0630 -112.0700 272° West 448 516 40,000  Level FlightAware
Wed 05:58:37 AM 34.0650 -112.1680 271° West 448 516 40,000  Level FlightAware
Wed 05:59:21 AM 34.0670 -112.2770 271° West 449 517 40,000  Level FlightAware
Wed 06:00:02 AM 34.0690 -112.3780 271° West 450 518 40,000  Level FlightAware
Wed 06:00:46 AM 34.0710 -112.4880 271° West 451 519 40,000  Level FlightAware
Wed 06:01:27 AM 34.0730 -112.5910 271° West 452 520 40,000  Level FlightAware
Wed 06:02:11 AM 34.0750 -112.7020 271° West 453 521 40,000  Level FlightAware
Wed 06:02:51 AM 34.0770 -112.8030 271° West 453 521 40,000  Level FlightAware
Wed 06:03:35 AM 34.0780 -112.9140 271° West 453 521 40,000  Level FlightAware
Wed 06:04:15 AM 34.0800 -113.0170 271° West 454 522 40,000  Level FlightAware
Wed 06:04:55 AM 34.0810 -113.1160 271° West 454 522 40,000  Level FlightAware
Wed 06:05:39 AM 34.0820 -113.2300 271° West 454 522 40,000  Level FlightAware
Wed 06:06:23 AM 34.0830 -113.3380 271° West 454 522 40,000  Level FlightAware
Wed 06:07:04 AM 34.0850 -113.4420 271° West 453 521 40,000  Level FlightAware
Wed 06:07:45 AM 34.0860 -113.5450 271° West 454 522 40,000  Level FlightAware
Wed 06:08:27 AM 34.0860 -113.6520 270° West 454 522 40,000  Level FlightAware
Wed 06:09:05 AM 34.0870 -113.7480 271° West 454 522 40,000  Level FlightAware
Wed 06:09:53 AM 34.0880 -113.8690 271° West 455 524 40,000  Level FlightAware
Wed 06:10:29 AM 34.0880 -113.9630 270° West 455 524 40,000  Level FlightAware
Wed 06:11:43 AM 34.0800 -114.1250 267° West 454 522 40,000  Level FlightAware
Wed 06:12:26 AM 34.0720 -114.2560 266° West 454 522 40,000  Level FlightAware
Wed 06:13:07 AM 34.0660 -114.3620 266° West 454 522 40,000  Level FlightAware
Wed 06:13:51 AM 34.0590 -114.4700 266° West 453 521 40,000  Level FlightAware
Wed 06:14:27 AM 34.0530 -114.5610 265° West 452 520 40,000  Level FlightAware
Wed 06:15:53 AM 34.0400 -114.7590 266° West 450 518 40,000  Level FlightAware
Wed 06:17:18 AM 34.0260 -114.9400 265° West 450 518 40,000  Level FlightAware
Wed 06:18:23 AM 34.0160 -115.0780 265° West 450 518 40,000  Level FlightAware
Wed 06:19:03 AM 34.0100 -115.2210 267° West 448 516 40,000  Level FlightAware
Wed 06:19:50 AM 34.0010 -115.3660 266° West 449 517 40,000  Level FlightAware
Wed 06:20:27 AM 33.9940 -115.4500 264° West 449 517 40,000  Level FlightAware
Wed 06:21:08 AM 33.9880 -115.5450 266° West 449 517 40,000  Level FlightAware
Wed 06:21:44 AM 33.9820 -115.6210 265° West 449 517 40,000  Level FlightAware
Wed 06:22:32 AM 33.9750 -115.7230 265° West 449 517 40,000 -4,000 Level FlightAware
Wed 06:23:20 AM 33.9630 -115.8940 265° West 464 534 33,600 -4,364 Descending FlightAware
Wed 06:24:00 AM 33.9550 -115.9810 264° West 464 534 33,600  Level FlightAware
Wed 06:24:48 AM 33.9460 -116.0860 264° West 464 534 33,600 -4,438 Level FlightAware
Wed 06:25:36 AM 33.9370 -116.2400 266° West 483 556 26,500 -6,124 Descending FlightAware
Wed 06:26:25 AM 33.9270 -116.3710 265° West 479 551 23,700 -1,976 Descending FlightAware
Wed 06:27:01 AM 33.9200 -116.4520 264° West 479 551 23,700  Level FlightAware
Wed 06:27:37 AM 33.9120 -116.5330 263° West 479 551 23,700  Level FlightAware
Wed 06:28:25 AM 33.9030 -116.6420 264° West 479 551 23,700 -5,243 Level FlightAware
Wed 06:29:28 AM 33.8920 -116.8170 266° West 398 458 14,000 -4,292 Descending FlightAware
Wed 06:30:49 AM 33.9040 -116.9430 277° West 321 369 13,400 -1,160 Descending FlightAware
Wed 06:31:27 AM 33.9320 -117.0210 293° West 298 343 11,700 -2,552 Descending FlightAware
Wed 06:32:16 AM 33.9600 -117.0990 293° West 285 328 9,700 -2,400 Descending FlightAware
Wed 06:32:32 AM 33.9680 -117.1190 296° West 280 322 9,100 -1,895 Descending FlightAware
Wed 06:33:13 AM 33.9910 -117.1830 293° West 278 320 7,900 -1,714 Descending FlightAware
Wed 06:33:42 AM 34.0060 -117.2260 293° West 259 298 7,100 -1,474 Descending FlightAware
Wed 06:34:10 AM 34.0190 -117.2620 294° West 246 283 6,500 -1,286 Descending FlightAware
Wed 06:34:38 AM 34.0310 -117.2950 294° West 227 261 5,900 -1,527 Descending FlightAware
Wed 06:35:05 AM 34.0420 -117.3270 293° West 221 254 5,100 -1,615 Descending FlightAware
Wed 06:35:30 AM 34.0510 -117.3540 292° West 218 251 4,500 -1,080 Descending FlightAware
Wed 06:35:55 AM 34.0550 -117.3850 279° West 218 251 4,200 -1,100 Descending FlightAware
Wed 06:36:30 AM 34.0540 -117.4250 268° West 197 227 3,400 -706 Descending FlightAware
Wed 06:37:03 AM 34.0540 -117.4530 270° West 195 224 3,400 7,738 Level FlightAware
Wed 06:38:17 AM 33.9080 -116.6230 102° East 439 505 17,200 7,327 Climbing FlightAware
Wed 06:38:56 AM 33.9010 -116.7030 264° West 439 505 17,200  Level FlightAware
Wed 06:39:45 AM 33.8920 -116.8050 264° West 439 505 17,200  Level FlightAware
Wed 06:40:22 AM 33.8850 -116.8810 264° West 439 505 17,200  Level FlightAware
Wed 06:41:10 AM 33.8760 -116.9810 264° West 439 505 17,200  Level FlightAware
Wed 06:41:46 AM 33.8700 -117.0550 264° West 439 505 17,200  Level FlightAware
Wed 06:47:00 AM 34.0500 -117.6000 281° West  Level FlightAware
Wed 06:48:00 AM 34.0560 -117.6012 281° West  Level Estimated

Login

Don't have an account? Register now (free) for customized features, flight alerts, and more!